Overview Statistics Trail Chart Weather Telemetry Raw packets
 

This is the latest recevied weather packets stored in our database for station/object KD8DNO-13. If no packets are shown the sender has not sent any weather packets the latest 10 day(s).

<< 96 97 98 99 100 101 102 >>
Time Temp. Humidity Pressure Rain* Wind** Luminosity Snow
1787848083 26.11° C 73% 1016.9 hPa 0 mm - - -
1787847784 26.11° C 74% 1016.9 hPa 0 mm - - -
1787847483 25.56° C 75% 1016.9 hPa 0 mm - - -
1787847184 26.11° C 73% 1016.9 hPa 0 mm - - -
1787846883 25.56° C 74% 1016.9 hPa 0 mm - - -
1787846584 26.11° C 72% 1016.9 hPa 0 mm - - -
1787846283 25.56° C 75% 1017.2 hPa 0 mm - - -
1787845984 25° C 76% 1017.2 hPa 0 mm - - -
1787845683 25° C 77% 1016.9 hPa 0 mm - - -
1787845383 25° C 76% 1016.9 hPa 0 mm - - -
1787845084 25° C 77% 1016.9 hPa 0 mm - - -
1787844783 25° C 76% 1016.9 hPa 0 mm - - -
1787844483 25° C 76% 1016.9 hPa 0 mm - - -
1787844183 25° C 76% 1016.9 hPa 0 mm - - -
1787843884 24.44° C 77% 1016.9 hPa 0 mm - - -
1787843583 25° C 77% 1016.9 hPa 0 mm - - -
1787843283 24.44° C 79% 1016.9 hPa 0 mm - - -
1787842983 23.89° C 79% 1016.5 hPa 0 mm - - -
1787842684 23.89° C 80% 1016.5 hPa 0 mm - - -
1787842383 23.89° C 80% 1016.5 hPa 0 mm - - -
1787842083 23.89° C 80% 1016.5 hPa 0 mm - - -
1787841784 23.33° C 81% 1016.5 hPa 0 mm - - -
1787841484 23.33° C 80% 1016.5 hPa 0 mm - - -
1787841183 23.33° C 80% 1016.5 hPa 0 mm - - -
1787840883 23.33° C 82% 1016.5 hPa 0 mm - - -

* Rain latest hour (hover to see other rain measurements)
** Current wind speed in m/s (hover to see current wind gust speed)